createdAt,value
2022-09-30T00:01:52.063Z,2.00
2022-09-30T00:04:20.987Z,2.00
2022-09-30T00:06:50.359Z,1.77
2022-09-30T00:09:18.418Z,1.60
2022-09-30T00:11:46.927Z,1.83
2022-09-30T00:14:17.343Z,1.63
2022-09-30T00:16:45.534Z,2.07
2022-09-30T00:19:13.666Z,2.13
2022-09-30T00:21:41.770Z,2.43
2022-09-30T00:24:11.143Z,2.30
2022-09-30T00:26:39.114Z,1.73
2022-09-30T00:29:07.095Z,2.53
2022-09-30T00:31:35.739Z,2.00
2022-09-30T00:34:11.673Z,1.97
2022-09-30T00:36:44.677Z,2.30
2022-09-30T00:39:15.186Z,2.13
2022-09-30T00:41:43.429Z,1.80
2022-09-30T00:44:51.872Z,1.87
2022-09-30T00:47:56.331Z,1.60
2022-09-30T00:50:30.070Z,1.53
2022-09-30T00:53:02.095Z,1.90
2022-09-30T00:55:37.866Z,1.80
2022-09-30T00:58:06.778Z,1.77
2022-09-30T01:00:34.818Z,2.00
2022-09-30T01:03:03.060Z,2.20
2022-09-30T01:05:31.048Z,2.17
2022-09-30T01:07:59.233Z,2.10
2022-09-30T01:10:27.211Z,1.90
2022-09-30T01:12:56.565Z,1.97
2022-09-30T01:15:27.989Z,2.30
2022-09-30T01:17:57.619Z,2.00
2022-09-30T01:21:13.024Z,2.27
2022-09-30T01:24:08.583Z,2.00
2022-09-30T01:26:47.035Z,2.83
2022-09-30T01:29:37.227Z,2.10
2022-09-30T01:32:08.569Z,2.17
2022-09-30T01:34:42.441Z,2.37
2022-09-30T01:37:11.816Z,2.17
2022-09-30T01:39:44.138Z,2.57
2022-09-30T01:42:15.163Z,3.30
2022-09-30T01:44:48.412Z,3.30
2022-09-30T01:47:20.283Z,5.17
2022-09-30T01:49:48.886Z,4.13
2022-09-30T01:52:17.950Z,3.30
2022-09-30T01:54:48.009Z,2.60
2022-09-30T01:57:18.375Z,2.50
2022-09-30T01:59:48.012Z,3.37
2022-09-30T02:02:18.603Z,2.60
2022-09-30T02:04:47.670Z,2.00
2022-09-30T02:07:18.393Z,2.50
2022-09-30T02:09:49.379Z,2.37
2022-09-30T02:12:19.450Z,1.90
2022-09-30T02:14:48.851Z,3.20
2022-09-30T02:17:19.871Z,2.23
2022-09-30T02:19:48.940Z,2.50
2022-09-30T02:22:19.196Z,3.00
2022-09-30T02:24:47.601Z,3.23
2022-09-30T02:27:17.560Z,3.23
2022-09-30T02:29:47.036Z,2.83
2022-09-30T02:32:19.661Z,2.93
2022-09-30T02:34:49.661Z,2.93
2022-09-30T02:37:18.547Z,3.03
2022-09-30T02:39:48.784Z,3.20
2022-09-30T02:42:20.325Z,2.97
2022-09-30T02:44:48.715Z,3.07
2022-09-30T02:47:20.624Z,2.63
2022-09-30T02:49:49.622Z,3.50
2022-09-30T02:52:26.065Z,4.10
2022-09-30T02:55:01.444Z,2.60
2022-09-30T02:57:34.646Z,4.30
2022-09-30T03:00:03.521Z,3.87
2022-09-30T03:02:33.919Z,3.73
2022-09-30T03:05:01.904Z,3.50
2022-09-30T03:07:29.899Z,3.87
2022-09-30T03:09:58.838Z,3.93
2022-09-30T03:12:34.686Z,2.90
2022-09-30T03:15:12.485Z,3.43
2022-09-30T03:17:55.288Z,3.43
2022-09-30T03:20:37.663Z,2.87
2022-09-30T03:23:47.192Z,3.23
2022-09-30T03:26:23.141Z,3.40
2022-09-30T03:28:54.375Z,3.27
2022-09-30T03:31:26.308Z,3.73
2022-09-30T03:33:57.010Z,3.93
2022-09-30T03:36:26.812Z,3.87
2022-09-30T03:38:59.523Z,3.27
2022-09-30T03:41:29.284Z,3.23
2022-09-30T03:43:59.647Z,3.07
2022-09-30T03:46:28.503Z,4.23
2022-09-30T03:48:59.966Z,3.90
2022-09-30T03:51:29.415Z,3.63
2022-09-30T03:53:57.416Z,4.80
2022-09-30T03:56:26.244Z,3.63
2022-09-30T03:58:54.222Z,4.07
2022-09-30T04:01:23.303Z,3.50
2022-09-30T04:03:52.485Z,3.97
2022-09-30T04:06:23.350Z,4.73
2022-09-30T04:08:51.449Z,6.00
2022-09-30T04:11:19.445Z,4.40
2022-09-30T04:13:47.399Z,3.90
2022-09-30T04:16:15.428Z,3.43
2022-09-30T04:18:43.436Z,4.37
2022-09-30T04:21:12.108Z,3.37
2022-09-30T04:23:42.398Z,4.50
2022-09-30T04:26:12.746Z,5.00
2022-09-30T04:28:40.737Z,3.50
2022-09-30T04:31:08.986Z,3.17
2022-09-30T04:33:37.013Z,4.73
2022-09-30T04:36:05.379Z,3.00
2022-09-30T04:38:34.269Z,3.97
2022-09-30T04:41:05.509Z,5.50
2022-09-30T04:43:34.292Z,5.60
2022-09-30T04:46:02.520Z,4.10
2022-09-30T04:48:31.434Z,5.00
2022-09-30T04:51:00.629Z,5.00
2022-09-30T04:53:29.366Z,5.27
2022-09-30T04:56:01.016Z,3.83
2022-09-30T04:58:36.656Z,3.77
2022-09-30T05:01:05.528Z,3.80
2022-09-30T05:03:33.629Z,3.10
2022-09-30T05:06:01.656Z,3.40
2022-09-30T05:08:29.620Z,2.77
2022-09-30T05:10:57.961Z,2.83
2022-09-30T05:13:26.133Z,3.23
2022-09-30T05:15:55.530Z,2.40
2022-09-30T05:18:26.441Z,2.00
2022-09-30T05:20:54.700Z,2.57
2022-09-30T05:23:22.772Z,3.17
2022-09-30T05:25:51.050Z,2.87
2022-09-30T05:28:19.397Z,2.13
2022-09-30T05:30:47.465Z,2.50
2022-09-30T05:33:16.809Z,2.30
2022-09-30T05:35:45.005Z,1.83
2022-09-30T05:38:13.497Z,1.83
2022-09-30T05:40:41.672Z,2.40
2022-09-30T05:43:09.698Z,2.40
2022-09-30T05:45:38.574Z,1.77
2022-09-30T05:48:07.132Z,2.30
2022-09-30T05:50:36.493Z,2.57
2022-09-30T05:53:04.476Z,3.90
2022-09-30T05:55:35.838Z,3.43
2022-09-30T05:58:07.116Z,2.90
2022-09-30T06:00:35.229Z,3.27
2022-09-30T06:03:03.297Z,4.67
2022-09-30T06:05:31.416Z,4.90
2022-09-30T06:08:01.012Z,13.30
2022-09-30T06:10:29.202Z,11.10
2022-09-30T06:12:59.258Z,12.17
2022-09-30T06:15:27.424Z,3.03
2022-09-30T06:17:55.351Z,2.20
2022-09-30T06:20:23.059Z,1.80
2022-09-30T06:22:51.033Z,2.27
2022-09-30T06:25:20.585Z,1.73
2022-09-30T06:27:48.830Z,1.70
2022-09-30T06:30:16.898Z,2.20
2022-09-30T06:32:45.324Z,2.20
2022-09-30T06:35:13.391Z,1.80
2022-09-30T06:37:42.043Z,2.83
2022-09-30T06:40:10.972Z,2.20
2022-09-30T06:42:40.298Z,1.87
2022-09-30T06:45:11.082Z,1.50
2022-09-30T06:47:44.975Z,2.20
2022-09-30T06:50:25.487Z,2.00
2022-09-30T06:52:53.951Z,2.13
2022-09-30T06:55:24.471Z,1.67
2022-09-30T06:57:53.898Z,1.87
2022-09-30T07:00:21.915Z,1.87
2022-09-30T07:02:49.938Z,1.90
2022-09-30T07:05:18.267Z,2.00
2022-09-30T07:07:46.237Z,1.40
2022-09-30T07:10:14.186Z,1.83
2022-09-30T07:12:42.463Z,1.80
2022-09-30T07:15:13.833Z,2.00
2022-09-30T07:17:42.026Z,2.30
2022-09-30T07:20:10.148Z,1.80
2022-09-30T07:22:38.144Z,1.90
2022-09-30T07:25:07.202Z,1.80
2022-09-30T07:27:35.340Z,1.70
2022-09-30T07:30:16.144Z,1.50
2022-09-30T07:32:50.285Z,1.87
2022-09-30T07:35:19.244Z,1.67
2022-09-30T07:37:47.223Z,1.87
2022-09-30T07:40:15.477Z,1.67
2022-09-30T07:42:46.125Z,1.47
2022-09-30T07:45:19.501Z,1.20
2022-09-30T07:47:53.271Z,1.77
2022-09-30T07:50:22.998Z,1.80
2022-09-30T07:52:50.980Z,2.83
2022-09-30T07:55:18.973Z,1.50
2022-09-30T07:57:46.917Z,1.60
2022-09-30T08:00:40.540Z,2.10
2022-09-30T08:03:02.829Z,1.73
2022-09-30T08:05:32.217Z,1.30
2022-09-30T08:08:00.182Z,2.30
2022-09-30T08:10:28.187Z,1.50
2022-09-30T08:12:59.146Z,1.80
2022-09-30T08:15:29.007Z,1.43
2022-09-30T08:17:57.080Z,1.40
2022-09-30T08:20:25.144Z,2.10
2022-09-30T08:22:55.270Z,1.77
2022-09-30T08:25:23.429Z,1.60
2022-09-30T08:27:51.680Z,1.70
2022-09-30T08:30:19.766Z,1.40
2022-09-30T08:32:47.720Z,1.90
2022-09-30T08:35:15.906Z,1.33
2022-09-30T08:37:43.902Z,1.50
2022-09-30T08:40:18.613Z,2.00
2022-09-30T08:42:55.551Z,1.60
2022-09-30T08:45:31.356Z,1.97
2022-09-30T08:48:03.844Z,1.97
2022-09-30T08:50:34.630Z,1.70
2022-09-30T08:53:04.106Z,1.67
2022-09-30T08:55:36.933Z,1.33
2022-09-30T08:58:05.074Z,1.90
2022-09-30T09:00:33.273Z,1.70
2022-09-30T09:03:03.324Z,1.20
2022-09-30T09:05:36.548Z,1.80
2022-09-30T09:08:08.507Z,1.33
2022-09-30T09:10:42.218Z,1.73
2022-09-30T09:13:17.950Z,1.60
2022-09-30T09:15:54.265Z,1.80
2022-09-30T09:18:43.055Z,1.90
2022-09-30T09:21:22.961Z,1.73
2022-09-30T09:23:51.590Z,1.47
2022-09-30T09:26:21.005Z,1.47
2022-09-30T09:28:57.703Z,1.90
2022-09-30T09:31:25.744Z,1.73
2022-09-30T09:33:53.950Z,1.67
2022-09-30T09:36:33.245Z,2.03
2022-09-30T09:39:18.305Z,1.57
2022-09-30T09:41:51.551Z,1.60
2022-09-30T09:44:23.971Z,1.67
2022-09-30T09:46:55.636Z,2.20
2022-09-30T09:49:35.033Z,1.60
2022-09-30T09:52:41.482Z,1.40
2022-09-30T09:55:12.169Z,2.00
2022-09-30T09:57:41.749Z,2.07
2022-09-30T10:00:28.131Z,1.80
2022-09-30T10:03:03.980Z,1.67
2022-09-30T10:05:32.457Z,2.03
2022-09-30T10:08:10.565Z,1.73
2022-09-30T10:10:49.624Z,1.80
2022-09-30T10:13:20.750Z,1.80
2022-09-30T10:15:49.131Z,2.23
2022-09-30T10:18:19.293Z,2.33
2022-09-30T10:20:51.882Z,1.80
2022-09-30T10:23:21.029Z,2.03
2022-09-30T10:25:59.419Z,1.83
2022-09-30T10:28:29.938Z,1.57
2022-09-30T10:31:05.682Z,1.50
2022-09-30T10:33:38.487Z,1.60
2022-09-30T10:36:09.672Z,2.13
2022-09-30T10:41:11.218Z,1.93
2022-09-30T10:43:43.622Z,1.48
2022-09-30T10:46:25.876Z,1.20
2022-09-30T10:48:56.049Z,1.45
2022-09-30T10:51:33.926Z,1.50
2022-09-30T10:54:02.091Z,1.63
2022-09-30T10:56:34.824Z,1.35
2022-09-30T10:59:05.115Z,1.63
2022-09-30T11:01:34.403Z,1.35
2022-09-30T11:04:06.093Z,1.52
2022-09-30T11:06:34.934Z,2.00
2022-09-30T11:09:05.278Z,1.20
2022-09-30T11:11:36.667Z,1.25
2022-09-30T11:14:17.102Z,1.50
2022-09-30T11:16:48.892Z,1.20
2022-09-30T11:19:19.135Z,1.17
2022-09-30T11:21:47.927Z,2.08
2022-09-30T11:24:22.069Z,1.35
2022-09-30T11:26:53.700Z,1.63
2022-09-30T11:29:33.571Z,1.63
2022-09-30T11:32:07.453Z,1.60
2022-09-30T11:34:42.639Z,1.55
2022-09-30T11:37:16.463Z,1.30
2022-09-30T11:40:01.473Z,1.38
2022-09-30T11:42:32.367Z,1.20
2022-09-30T11:45:05.199Z,1.02
2022-09-30T11:47:44.301Z,1.05
2022-09-30T11:50:30.325Z,0.90
2022-09-30T11:53:05.084Z,0.80
2022-09-30T11:55:42.486Z,1.08
2022-09-30T11:58:36.205Z,1.42
2022-09-30T12:01:02.456Z,1.20
2022-09-30T12:03:31.714Z,1.02
2022-09-30T12:06:02.583Z,1.23
2022-09-30T12:08:31.760Z,0.80
2022-09-30T12:11:00.910Z,0.95
2022-09-30T12:13:31.001Z,0.80
2022-09-30T12:15:59.196Z,0.90
2022-09-30T12:18:30.527Z,0.70
2022-09-30T12:20:59.783Z,1.10
2022-09-30T12:23:29.201Z,1.17
2022-09-30T12:25:58.442Z,1.05
2022-09-30T12:28:48.297Z,1.48
2022-09-30T12:31:39.655Z,1.00
2022-09-30T12:34:18.273Z,1.35
2022-09-30T12:36:56.233Z,1.20
2022-09-30T12:39:46.224Z,1.30
2022-09-30T12:42:33.313Z,1.25
2022-09-30T12:45:15.636Z,1.50
2022-09-30T12:47:46.226Z,1.30
2022-09-30T12:50:17.149Z,1.40
2022-09-30T12:52:45.540Z,1.10
2022-09-30T12:55:22.597Z,1.90
2022-09-30T12:57:50.680Z,1.00
2022-09-30T13:00:19.408Z,1.37
2022-09-30T13:02:48.742Z,1.20
2022-09-30T13:05:56.384Z,1.43
2022-09-30T13:08:43.112Z,1.83
2022-09-30T13:11:31.388Z,1.20
2022-09-30T13:14:03.737Z,1.00
2022-09-30T13:17:03.276Z,1.33
2022-09-30T13:19:36.516Z,1.80
2022-09-30T13:22:53.966Z,1.20
2022-09-30T13:25:23.360Z,1.30
2022-09-30T13:27:53.652Z,1.70
2022-09-30T13:30:48.627Z,1.10
2022-09-30T13:33:42.385Z,1.17
2022-09-30T13:36:25.746Z,1.33
2022-09-30T13:39:18.905Z,1.63
2022-09-30T13:41:50.520Z,1.17
2022-09-30T13:44:21.016Z,1.40
2022-09-30T13:46:50.623Z,1.30
2022-09-30T13:49:20.899Z,1.20
2022-09-30T13:51:49.097Z,1.20
2022-09-30T13:54:23.421Z,1.10
2022-09-30T13:56:52.833Z,1.57
2022-09-30T13:59:36.395Z,1.20
2022-09-30T14:02:35.389Z,1.40
2022-09-30T14:05:29.239Z,1.57
2022-09-30T14:08:08.262Z,1.67
2022-09-30T14:10:42.137Z,1.90
2022-09-30T14:13:20.145Z,1.60
2022-09-30T14:15:57.576Z,1.40
2022-09-30T14:18:53.453Z,1.40
2022-09-30T14:21:34.128Z,1.37
2022-09-30T14:24:04.221Z,1.73
2022-09-30T14:26:44.155Z,2.13
2022-09-30T14:29:16.691Z,1.10
2022-09-30T14:31:45.801Z,1.20
2022-09-30T14:34:13.804Z,1.10
2022-09-30T14:39:29.747Z,1.10
2022-09-30T14:42:02.236Z,1.20
2022-09-30T14:44:33.929Z,1.77
2022-09-30T14:47:02.824Z,1.33
2022-09-30T14:49:36.208Z,1.33
2022-09-30T14:52:04.332Z,1.50
2022-09-30T14:54:32.913Z,1.60
2022-09-30T14:57:02.431Z,2.00
2022-09-30T14:59:33.242Z,1.73
2022-09-30T15:02:01.921Z,2.03
2022-09-30T15:04:31.938Z,1.40
2022-09-30T15:07:01.347Z,1.03
2022-09-30T15:09:32.513Z,1.63
2022-09-30T15:12:07.316Z,1.37
2022-09-30T15:14:45.715Z,1.70
2022-09-30T15:17:19.245Z,1.87
2022-09-30T15:19:47.227Z,1.73
2022-09-30T15:22:15.235Z,2.30
2022-09-30T15:24:43.373Z,2.27
2022-09-30T15:27:15.686Z,2.50
2022-09-30T15:29:56.546Z,2.00
2022-09-30T15:32:25.156Z,3.13
2022-09-30T15:34:53.766Z,2.50
2022-09-30T15:37:22.962Z,3.80
2022-09-30T15:40:08.323Z,2.70
2022-09-30T15:42:37.402Z,2.80
2022-09-30T15:45:16.287Z,2.47
2022-09-30T15:47:54.961Z,2.00
2022-09-30T15:50:39.668Z,2.23
2022-09-30T15:53:15.160Z,1.83
2022-09-30T15:55:44.289Z,1.63
2022-09-30T15:58:37.630Z,1.87
2022-09-30T16:01:15.175Z,1.70
2022-09-30T16:03:49.627Z,1.80
2022-09-30T16:06:17.790Z,1.97
2022-09-30T16:08:46.426Z,1.70
2022-09-30T16:11:21.274Z,1.60
2022-09-30T16:13:49.251Z,1.80
2022-09-30T16:16:21.657Z,1.03
2022-09-30T16:18:49.977Z,1.50
2022-09-30T16:21:45.970Z,3.60
2022-09-30T16:24:47.943Z,3.60
2022-09-30T16:27:30.418Z,1.83
2022-09-30T16:29:59.197Z,1.93
2022-09-30T16:32:32.613Z,1.83
2022-09-30T16:35:00.714Z,1.80
2022-09-30T16:37:28.711Z,1.60
2022-09-30T16:39:57.754Z,1.67
2022-09-30T16:42:25.765Z,1.37
2022-09-30T16:44:53.978Z,1.80
2022-09-30T16:47:22.151Z,2.80
2022-09-30T16:49:52.131Z,1.90
2022-09-30T16:52:20.101Z,2.13
2022-09-30T16:54:48.082Z,2.53
2022-09-30T16:57:16.741Z,2.10
2022-09-30T16:59:44.754Z,2.07
2022-09-30T17:02:14.741Z,2.80
2022-09-30T17:04:45.329Z,3.83
2022-09-30T17:07:15.602Z,2.33
2022-09-30T17:09:44.408Z,2.43
2022-09-30T17:12:13.036Z,3.57
2022-09-30T17:14:43.122Z,2.07
2022-09-30T17:17:13.628Z,2.73
2022-09-30T17:19:42.170Z,2.63
2022-09-30T17:22:10.266Z,2.13
2022-09-30T17:24:39.633Z,1.70
2022-09-30T17:27:07.937Z,2.23
2022-09-30T17:29:41.841Z,1.77
2022-09-30T17:32:10.407Z,1.90
2022-09-30T17:34:38.388Z,1.50
2022-09-30T17:39:40.741Z,1.40
2022-09-30T17:42:27.072Z,1.77
2022-09-30T17:44:55.024Z,2.07
2022-09-30T17:47:23.171Z,1.60
2022-09-30T17:49:51.317Z,1.77
2022-09-30T17:52:19.272Z,1.87
2022-09-30T17:54:52.313Z,1.70
2022-09-30T17:57:20.684Z,1.67
2022-09-30T17:59:48.846Z,3.53
2022-09-30T18:02:17.734Z,1.40
2022-09-30T18:04:46.594Z,1.40
2022-09-30T18:07:14.672Z,1.90
2022-09-30T18:09:42.639Z,1.40
2022-09-30T18:12:12.302Z,1.53
2022-09-30T18:14:40.405Z,1.80
2022-09-30T18:17:08.391Z,1.80
2022-09-30T18:19:36.600Z,1.67
2022-09-30T18:22:04.590Z,2.07
2022-09-30T18:24:49.898Z,2.40
2022-09-30T18:27:21.572Z,1.53
2022-09-30T18:29:49.630Z,1.80
2022-09-30T18:32:18.674Z,1.83
2022-09-30T18:34:46.710Z,2.20
2022-09-30T18:37:14.681Z,1.87
2022-09-30T18:39:42.706Z,1.67
2022-09-30T18:42:10.710Z,1.47
2022-09-30T18:44:40.206Z,1.80
2022-09-30T18:47:08.198Z,1.90
2022-09-30T18:49:36.171Z,1.73
2022-09-30T18:52:04.667Z,2.17
2022-09-30T18:54:33.778Z,1.90
2022-09-30T18:57:01.728Z,1.40
2022-09-30T18:59:29.769Z,1.33
2022-09-30T19:02:00.495Z,1.47
2022-09-30T19:04:29.139Z,1.53
2022-09-30T19:06:57.145Z,1.40
2022-09-30T19:09:26.697Z,1.70
2022-09-30T19:11:55.580Z,1.73
2022-09-30T19:14:24.224Z,1.77
2022-09-30T19:16:52.483Z,1.80
2022-09-30T19:19:23.265Z,1.23
2022-09-30T19:21:51.364Z,1.90
2022-09-30T19:24:21.114Z,1.70
2022-09-30T19:26:52.856Z,2.20
2022-09-30T19:29:20.945Z,1.73
2022-09-30T19:31:49.026Z,1.03
2022-09-30T19:34:29.432Z,1.63
2022-09-30T19:37:01.366Z,1.10
2022-09-30T19:39:40.598Z,1.53
2022-09-30T19:42:18.384Z,1.87
2022-09-30T19:44:46.360Z,1.70
2022-09-30T19:47:14.340Z,1.30
2022-09-30T19:49:42.587Z,1.50
2022-09-30T19:52:20.189Z,1.73
2022-09-30T19:54:50.847Z,1.10
2022-09-30T19:57:18.800Z,2.07
2022-09-30T19:59:46.820Z,1.37
2022-09-30T20:02:14.891Z,2.23
2022-09-30T20:04:43.877Z,2.17
2022-09-30T20:07:15.071Z,1.67
2022-09-30T20:09:43.652Z,1.60
2022-09-30T20:12:11.942Z,1.63
2022-09-30T20:14:57.313Z,1.83
2022-09-30T20:17:25.321Z,1.80
2022-09-30T20:20:07.121Z,0.90
2022-09-30T20:22:36.498Z,1.43
2022-09-30T20:25:04.871Z,1.97
2022-09-30T20:27:33.029Z,1.77
2022-09-30T20:30:01.024Z,1.87
2022-09-30T20:32:30.867Z,2.00
2022-09-30T20:34:59.175Z,1.80
2022-09-30T20:37:27.127Z,1.50
2022-09-30T20:39:57.777Z,1.93
2022-09-30T20:42:28.261Z,1.90
2022-09-30T20:45:01.149Z,1.30
2022-09-30T20:47:29.230Z,1.30
2022-09-30T20:49:58.512Z,1.70
2022-09-30T20:52:26.785Z,1.23
2022-09-30T20:54:57.590Z,1.33
2022-09-30T20:57:25.607Z,1.53
2022-09-30T20:59:53.564Z,1.33
2022-09-30T21:02:24.242Z,1.73
2022-09-30T21:04:52.734Z,1.43
2022-09-30T21:07:21.171Z,1.10
2022-09-30T21:09:49.200Z,1.50
2022-09-30T21:12:18.744Z,1.60
2022-09-30T21:14:46.737Z,1.50
2022-09-30T21:17:14.696Z,1.17
2022-09-30T21:19:43.438Z,1.53
2022-09-30T21:22:11.437Z,1.40
2022-09-30T21:24:39.396Z,1.80
2022-09-30T21:27:08.032Z,1.50
2022-09-30T21:29:37.408Z,1.87
2022-09-30T21:32:05.522Z,2.33
2022-09-30T21:34:34.139Z,1.83
2022-09-30T21:37:02.225Z,1.50
2022-09-30T21:39:30.190Z,2.40
2022-09-30T21:41:58.362Z,2.00
2022-09-30T21:44:26.748Z,2.20
2022-09-30T21:46:56.071Z,1.63
2022-09-30T21:49:24.594Z,2.27
2022-09-30T21:51:53.415Z,1.70
2022-09-30T21:54:21.435Z,2.17
2022-09-30T21:56:49.488Z,2.03
2022-09-30T21:59:17.569Z,2.00
2022-09-30T22:01:46.435Z,2.60
2022-09-30T22:04:15.826Z,2.50
2022-09-30T22:06:45.417Z,2.77
2022-09-30T22:09:13.512Z,2.20
2022-09-30T22:11:44.266Z,3.13
2022-09-30T22:14:12.225Z,2.77
2022-09-30T22:16:40.300Z,2.43
2022-09-30T22:19:09.029Z,2.87
2022-09-30T22:21:38.573Z,2.50
2022-09-30T22:24:08.004Z,2.60
2022-09-30T22:26:37.163Z,2.60
2022-09-30T22:29:06.308Z,2.57
2022-09-30T22:31:34.823Z,2.93
2022-09-30T22:34:23.529Z,2.47
2022-09-30T22:37:10.259Z,3.50
2022-09-30T22:39:38.240Z,2.87
2022-09-30T22:42:07.312Z,3.53
2022-09-30T22:44:36.254Z,2.67
2022-09-30T22:47:04.237Z,2.40
2022-09-30T22:49:33.087Z,2.87
2022-09-30T22:52:03.795Z,1.87
2022-09-30T22:54:31.922Z,2.83
2022-09-30T22:57:00.222Z,2.43
2022-09-30T22:59:28.488Z,2.30
2022-09-30T23:01:56.541Z,3.20
2022-09-30T23:04:26.329Z,2.60
2022-09-30T23:06:55.426Z,3.00
2022-09-30T23:09:24.858Z,2.33
2022-09-30T23:11:54.545Z,2.30
2022-09-30T23:14:22.616Z,2.43
2022-09-30T23:16:50.752Z,2.40
2022-09-30T23:19:18.795Z,2.30
2022-09-30T23:21:46.745Z,1.77
2022-09-30T23:24:14.708Z,2.27
2022-09-30T23:26:44.615Z,2.20
2022-09-30T23:29:13.431Z,1.63
2022-09-30T23:31:41.605Z,1.93
2022-09-30T23:34:09.748Z,1.57
2022-09-30T23:36:37.831Z,1.60
2022-09-30T23:39:08.204Z,1.70
2022-09-30T23:41:36.530Z,2.27
2022-09-30T23:44:06.172Z,2.00
2022-09-30T23:46:34.147Z,1.50
2022-09-30T23:49:02.274Z,1.70
2022-09-30T23:51:30.471Z,2.03
2022-09-30T23:53:58.786Z,2.40
2022-09-30T23:56:26.741Z,2.47
2022-09-30T23:58:54.718Z,2.90
